sensor_id;sensor_type;location;lat;lon;timestamp;temperature;humidity
47090;DHT22;32840;52.516;13.294;2023-06-10T00:02:15;18.30;99.90
47090;DHT22;32840;52.516;13.294;2023-06-10T00:05:01;18.30;99.90
47090;DHT22;32840;52.516;13.294;2023-06-10T00:07:47;18.20;99.90
47090;DHT22;32840;52.516;13.294;2023-06-10T00:10:36;18.30;99.90
47090;DHT22;32840;52.516;13.294;2023-06-10T00:13:21;18.30;99.90
47090;DHT22;32840;52.516;13.294;2023-06-10T00:16:06;18.30;99.90
47090;DHT22;32840;52.516;13.294;2023-06-10T00:18:51;18.40;99.90
47090;DHT22;32840;52.516;13.294;2023-06-10T00:21:36;18.20;99.90
47090;DHT22;32840;52.516;13.294;2023-06-10T00:24:24;18.00;99.90
47090;DHT22;32840;52.516;13.294;2023-06-10T00:27:09;18.00;99.90
47090;DHT22;32840;52.516;13.294;2023-06-10T00:29:54;18.00;99.90
47090;DHT22;32840;52.516;13.294;2023-06-10T00:32:39;18.00;99.90
47090;DHT22;32840;52.516;13.294;2023-06-10T00:35:23;18.00;99.90
47090;DHT22;32840;52.516;13.294;2023-06-10T00:38:09;18.00;99.90
47090;DHT22;32840;52.516;13.294;2023-06-10T00:40:54;18.00;99.90
47090;DHT22;32840;52.516;13.294;2023-06-10T00:43:39;17.90;99.90
47090;DHT22;32840;52.516;13.294;2023-06-10T00:46:25;17.90;99.90
47090;DHT22;32840;52.516;13.294;2023-06-10T00:49:11;18.00;99.90
47090;DHT22;32840;52.516;13.294;2023-06-10T00:51:56;18.00;99.90
47090;DHT22;32840;52.516;13.294;2023-06-10T00:54:41;17.90;99.90
47090;DHT22;32840;52.516;13.294;2023-06-10T00:57:25;17.80;99.90
47090;DHT22;32840;52.516;13.294;2023-06-10T01:00:11;17.80;99.90
47090;DHT22;32840;52.516;13.294;2023-06-10T01:02:56;17.70;99.90
47090;DHT22;32840;52.516;13.294;2023-06-10T01:05:42;17.70;99.90
47090;DHT22;32840;52.516;13.294;2023-06-10T01:08:41;17.60;99.90
47090;DHT22;32840;52.516;13.294;2023-06-10T01:11:41;17.70;99.90
47090;DHT22;32840;52.516;13.294;2023-06-10T01:14:27;17.70;99.90
47090;DHT22;32840;52.516;13.294;2023-06-10T01:17:13;17.60;99.90
47090;DHT22;32840;52.516;13.294;2023-06-10T01:20:01;17.70;99.90
47090;DHT22;32840;52.516;13.294;2023-06-10T01:22:56;17.70;99.90
47090;DHT22;32840;52.516;13.294;2023-06-10T01:26:04;17.60;99.90
47090;DHT22;32840;52.516;13.294;2023-06-10T01:28:57;17.50;99.90
47090;DHT22;32840;52.516;13.294;2023-06-10T01:31:54;17.50;99.90
47090;DHT22;32840;52.516;13.294;2023-06-10T01:34:44;17.50;99.90
47090;DHT22;32840;52.516;13.294;2023-06-10T01:37:29;17.50;99.90
47090;DHT22;32840;52.516;13.294;2023-06-10T01:40:16;17.30;99.90
47090;DHT22;32840;52.516;13.294;2023-06-10T01:43:01;17.40;99.90
47090;DHT22;32840;52.516;13.294;2023-06-10T01:45:47;17.40;99.90
47090;DHT22;32840;52.516;13.294;2023-06-10T01:48:32;17.30;99.90
47090;DHT22;32840;52.516;13.294;2023-06-10T01:51:17;17.30;99.90
47090;DHT22;32840;52.516;13.294;2023-06-10T01:54:01;17.40;99.90
47090;DHT22;32840;52.516;13.294;2023-06-10T01:56:46;17.40;99.90
47090;DHT22;32840;52.516;13.294;2023-06-10T01:59:31;17.40;99.90
47090;DHT22;32840;52.516;13.294;2023-06-10T02:02:16;17.40;99.90
47090;DHT22;32840;52.516;13.294;2023-06-10T02:05:01;17.30;99.90
47090;DHT22;32840;52.516;13.294;2023-06-10T02:07:46;17.30;99.90
47090;DHT22;32840;52.516;13.294;2023-06-10T02:10:31;17.20;99.90
47090;DHT22;32840;52.516;13.294;2023-06-10T02:13:16;17.20;99.90
47090;DHT22;32840;52.516;13.294;2023-06-10T02:16:01;17.20;99.90
47090;DHT22;32840;52.516;13.294;2023-06-10T02:18:46;17.20;99.90
47090;DHT22;32840;52.516;13.294;2023-06-10T02:21:31;17.20;99.90
47090;DHT22;32840;52.516;13.294;2023-06-10T02:24:15;17.20;99.90
47090;DHT22;32840;52.516;13.294;2023-06-10T02:27:00;17.20;99.90
47090;DHT22;32840;52.516;13.294;2023-06-10T02:29:46;17.20;99.90
47090;DHT22;32840;52.516;13.294;2023-06-10T02:32:31;17.20;99.90
47090;DHT22;32840;52.516;13.294;2023-06-10T02:35:17;17.30;99.90
47090;DHT22;32840;52.516;13.294;2023-06-10T02:38:01;17.30;99.90
47090;DHT22;32840;52.516;13.294;2023-06-10T02:40:46;17.20;99.90
47090;DHT22;32840;52.516;13.294;2023-06-10T02:43:31;17.10;99.90
47090;DHT22;32840;52.516;13.294;2023-06-10T02:46:16;17.10;99.90
47090;DHT22;32840;52.516;13.294;2023-06-10T02:49:01;17.10;99.90
47090;DHT22;32840;52.516;13.294;2023-06-10T02:51:46;17.00;99.90
47090;DHT22;32840;52.516;13.294;2023-06-10T02:54:31;17.00;99.90
47090;DHT22;32840;52.516;13.294;2023-06-10T02:57:16;17.00;99.90
47090;DHT22;32840;52.516;13.294;2023-06-10T03:00:01;17.00;99.90
47090;DHT22;32840;52.516;13.294;2023-06-10T03:02:45;17.00;99.90
47090;DHT22;32840;52.516;13.294;2023-06-10T03:05:31;17.00;99.90
47090;DHT22;32840;52.516;13.294;2023-06-10T03:08:16;16.90;99.90
47090;DHT22;32840;52.516;13.294;2023-06-10T03:11:01;16.90;99.90
47090;DHT22;32840;52.516;13.294;2023-06-10T03:13:46;17.00;99.90
47090;DHT22;32840;52.516;13.294;2023-06-10T03:16:31;17.00;99.90
47090;DHT22;32840;52.516;13.294;2023-06-10T03:19:16;17.10;99.90
47090;DHT22;32840;52.516;13.294;2023-06-10T03:22:12;17.10;99.90
47090;DHT22;32840;52.516;13.294;2023-06-10T03:24:58;17.10;99.90
47090;DHT22;32840;52.516;13.294;2023-06-10T03:27:44;17.00;99.90
47090;DHT22;32840;52.516;13.294;2023-06-10T03:30:28;17.00;99.90
47090;DHT22;32840;52.516;13.294;2023-06-10T03:33:13;17.00;99.90
47090;DHT22;32840;52.516;13.294;2023-06-10T03:35:58;16.90;99.90
47090;DHT22;32840;52.516;13.294;2023-06-10T03:38:43;16.90;99.90
47090;DHT22;32840;52.516;13.294;2023-06-10T03:41:28;16.90;99.90
47090;DHT22;32840;52.516;13.294;2023-06-10T03:44:13;17.00;99.90
47090;DHT22;32840;52.516;13.294;2023-06-10T03:46:58;17.00;99.90
47090;DHT22;32840;52.516;13.294;2023-06-10T03:49:44;17.00;99.90
47090;DHT22;32840;52.516;13.294;2023-06-10T03:52:29;17.00;99.90
47090;DHT22;32840;52.516;13.294;2023-06-10T03:55:14;17.00;99.90
47090;DHT22;32840;52.516;13.294;2023-06-10T03:58:01;17.10;99.90
47090;DHT22;32840;52.516;13.294;2023-06-10T04:00:46;17.00;99.90
47090;DHT22;32840;52.516;13.294;2023-06-10T04:03:31;17.10;99.90
47090;DHT22;32840;52.516;13.294;2023-06-10T04:06:17;17.00;99.90
47090;DHT22;32840;52.516;13.294;2023-06-10T04:09:02;17.10;99.90
47090;DHT22;32840;52.516;13.294;2023-06-10T04:11:48;17.10;99.90
47090;DHT22;32840;52.516;13.294;2023-06-10T04:14:32;17.10;99.90
47090;DHT22;32840;52.516;13.294;2023-06-10T04:17:17;17.00;99.90
47090;DHT22;32840;52.516;13.294;2023-06-10T04:20:02;16.90;99.90
47090;DHT22;32840;52.516;13.294;2023-06-10T04:22:50;17.00;99.90
47090;DHT22;32840;52.516;13.294;2023-06-10T04:25:35;17.00;99.90
47090;DHT22;32840;52.516;13.294;2023-06-10T04:28:20;17.00;99.90
47090;DHT22;32840;52.516;13.294;2023-06-10T04:31:05;17.00;99.90
47090;DHT22;32840;52.516;13.294;2023-06-10T04:33:50;17.00;99.90
47090;DHT22;32840;52.516;13.294;2023-06-10T04:36:35;17.00;99.90
47090;DHT22;32840;52.516;13.294;2023-06-10T04:39:20;16.90;99.90
47090;DHT22;32840;52.516;13.294;2023-06-10T04:42:05;16.90;99.90
47090;DHT22;32840;52.516;13.294;2023-06-10T04:44:50;17.00;99.90
47090;DHT22;32840;52.516;13.294;2023-06-10T04:47:35;17.10;99.90
47090;DHT22;32840;52.516;13.294;2023-06-10T04:50:20;17.10;99.90
47090;DHT22;32840;52.516;13.294;2023-06-10T04:53:05;17.10;99.90
47090;DHT22;32840;52.516;13.294;2023-06-10T04:55:53;17.20;99.90
47090;DHT22;32840;52.516;13.294;2023-06-10T04:58:38;17.30;99.90
47090;DHT22;32840;52.516;13.294;2023-06-10T05:01:23;17.50;99.90
47090;DHT22;32840;52.516;13.294;2023-06-10T05:04:08;17.50;99.90
47090;DHT22;32840;52.516;13.294;2023-06-10T05:06:53;17.60;99.90
47090;DHT22;32840;52.516;13.294;2023-06-10T05:09:38;17.70;99.90
47090;DHT22;32840;52.516;13.294;2023-06-10T05:12:23;17.60;99.90
47090;DHT22;32840;52.516;13.294;2023-06-10T05:15:08;17.70;99.90
47090;DHT22;32840;52.516;13.294;2023-06-10T05:17:53;17.80;99.90
47090;DHT22;32840;52.516;13.294;2023-06-10T05:20:39;17.70;99.90
47090;DHT22;32840;52.516;13.294;2023-06-10T05:23:24;17.70;99.90
47090;DHT22;32840;52.516;13.294;2023-06-10T05:26:11;17.60;99.90
47090;DHT22;32840;52.516;13.294;2023-06-10T05:28:56;17.60;99.90
47090;DHT22;32840;52.516;13.294;2023-06-10T05:31:41;17.50;99.90
47090;DHT22;32840;52.516;13.294;2023-06-10T05:34:26;17.50;99.90
47090;DHT22;32840;52.516;13.294;2023-06-10T05:37:12;17.60;99.90
47090;DHT22;32840;52.516;13.294;2023-06-10T05:39:57;17.70;99.90
47090;DHT22;32840;52.516;13.294;2023-06-10T05:42:42;17.60;99.90
47090;DHT22;32840;52.516;13.294;2023-06-10T05:45:27;17.60;99.90
47090;DHT22;32840;52.516;13.294;2023-06-10T05:48:12;17.60;99.90
47090;DHT22;32840;52.516;13.294;2023-06-10T05:50:57;17.70;99.90
47090;DHT22;32840;52.516;13.294;2023-06-10T05:53:42;17.80;99.90
47090;DHT22;32840;52.516;13.294;2023-06-10T05:56:27;18.00;99.90
47090;DHT22;32840;52.516;13.294;2023-06-10T05:59:12;18.20;99.90
47090;DHT22;32840;52.516;13.294;2023-06-10T06:01:58;18.50;99.90
47090;DHT22;32840;52.516;13.294;2023-06-10T06:04:43;18.90;99.90
47090;DHT22;32840;52.516;13.294;2023-06-10T06:07:28;19.10;99.90
47090;DHT22;32840;52.516;13.294;2023-06-10T06:10:13;19.30;99.90
47090;DHT22;32840;52.516;13.294;2023-06-10T06:12:58;19.30;99.90
47090;DHT22;32840;52.516;13.294;2023-06-10T06:15:42;19.50;99.90
47090;DHT22;32840;52.516;13.294;2023-06-10T06:18:27;19.60;99.90
47090;DHT22;32840;52.516;13.294;2023-06-10T06:21:12;19.60;99.90
47090;DHT22;32840;52.516;13.294;2023-06-10T06:23:59;19.60;99.90
47090;DHT22;32840;52.516;13.294;2023-06-10T06:26:44;19.60;99.90
47090;DHT22;32840;52.516;13.294;2023-06-10T06:29:29;19.60;99.90
47090;DHT22;32840;52.516;13.294;2023-06-10T06:32:14;19.70;99.90
47090;DHT22;32840;52.516;13.294;2023-06-10T06:34:59;19.80;99.90
47090;DHT22;32840;52.516;13.294;2023-06-10T06:37:44;20.00;99.90
47090;DHT22;32840;52.516;13.294;2023-06-10T06:40:29;20.10;99.90
47090;DHT22;32840;52.516;13.294;2023-06-10T06:43:14;20.10;99.90
47090;DHT22;32840;52.516;13.294;2023-06-10T06:45:59;20.10;99.90
47090;DHT22;32840;52.516;13.294;2023-06-10T06:48:44;20.10;99.90
47090;DHT22;32840;52.516;13.294;2023-06-10T06:51:29;20.30;99.90
47090;DHT22;32840;52.516;13.294;2023-06-10T06:54:14;20.40;99.90
47090;DHT22;32840;52.516;13.294;2023-06-10T06:56:59;20.60;99.90
47090;DHT22;32840;52.516;13.294;2023-06-10T06:59:44;20.70;99.90
47090;DHT22;32840;52.516;13.294;2023-06-10T07:02:29;20.90;99.90
47090;DHT22;32840;52.516;13.294;2023-06-10T07:05:14;21.00;99.90
47090;DHT22;32840;52.516;13.294;2023-06-10T07:07:58;21.00;99.90
47090;DHT22;32840;52.516;13.294;2023-06-10T07:10:43;21.00;99.90
47090;DHT22;32840;52.516;13.294;2023-06-10T07:13:28;20.80;99.90
47090;DHT22;32840;52.516;13.294;2023-06-10T07:16:13;20.60;99.90
47090;DHT22;32840;52.516;13.294;2023-06-10T07:18:59;20.70;99.90
47090;DHT22;32840;52.516;13.294;2023-06-10T07:21:44;20.80;99.90
47090;DHT22;32840;52.516;13.294;2023-06-10T07:24:29;21.00;99.90
47090;DHT22;32840;52.516;13.294;2023-06-10T07:27:14;21.40;99.90
47090;DHT22;32840;52.516;13.294;2023-06-10T07:30:00;21.70;99.90
47090;DHT22;32840;52.516;13.294;2023-06-10T07:32:46;21.80;99.90
47090;DHT22;32840;52.516;13.294;2023-06-10T07:35:31;22.00;99.90
47090;DHT22;32840;52.516;13.294;2023-06-10T07:38:17;22.00;99.90
47090;DHT22;32840;52.516;13.294;2023-06-10T07:41:02;21.90;99.90
47090;DHT22;32840;52.516;13.294;2023-06-10T07:43:47;21.90;99.90
47090;DHT22;32840;52.516;13.294;2023-06-10T07:46:32;22.00;99.90
47090;DHT22;32840;52.516;13.294;2023-06-10T07:49:16;22.20;99.90
47090;DHT22;32840;52.516;13.294;2023-06-10T07:52:01;22.20;99.90
47090;DHT22;32840;52.516;13.294;2023-06-10T07:54:46;22.40;99.90
47090;DHT22;32840;52.516;13.294;2023-06-10T07:57:31;22.80;99.90
47090;DHT22;32840;52.516;13.294;2023-06-10T08:00:20;23.00;99.90
47090;DHT22;32840;52.516;13.294;2023-06-10T08:03:05;23.40;99.90
47090;DHT22;32840;52.516;13.294;2023-06-10T08:05:50;23.80;99.40
47090;DHT22;32840;52.516;13.294;2023-06-10T08:08:35;23.80;98.30
47090;DHT22;32840;52.516;13.294;2023-06-10T08:11:24;23.50;98.40
47090;DHT22;32840;52.516;13.294;2023-06-10T08:14:11;23.30;98.60
47090;DHT22;32840;52.516;13.294;2023-06-10T08:16:56;23.30;98.50
47090;DHT22;32840;52.516;13.294;2023-06-10T08:19:41;23.10;98.80
47090;DHT22;32840;52.516;13.294;2023-06-10T08:22:27;23.10;98.80
47090;DHT22;32840;52.516;13.294;2023-06-10T08:25:13;23.30;98.80
47090;DHT22;32840;52.516;13.294;2023-06-10T08:27:58;23.50;98.50
47090;DHT22;32840;52.516;13.294;2023-06-10T08:30:43;23.90;97.30
47090;DHT22;32840;52.516;13.294;2023-06-10T08:33:28;24.10;96.70
47090;DHT22;32840;52.516;13.294;2023-06-10T08:36:13;24.60;95.90
47090;DHT22;32840;52.516;13.294;2023-06-10T08:38:58;24.80;94.20
47090;DHT22;32840;52.516;13.294;2023-06-10T08:41:44;25.20;93.30
47090;DHT22;32840;52.516;13.294;2023-06-10T08:44:35;25.50;92.50
47090;DHT22;32840;52.516;13.294;2023-06-10T08:47:24;25.50;91.40
47090;DHT22;32840;52.516;13.294;2023-06-10T08:50:10;25.40;91.40
47090;DHT22;32840;52.516;13.294;2023-06-10T08:52:57;25.60;91.30
47090;DHT22;32840;52.516;13.294;2023-06-10T08:55:42;25.60;90.50
47090;DHT22;32840;52.516;13.294;2023-06-10T08:58:29;25.70;90.50
47090;DHT22;32840;52.516;13.294;2023-06-10T09:01:13;25.80;90.00
47090;DHT22;32840;52.516;13.294;2023-06-10T09:04:01;25.90;89.40
47090;DHT22;32840;52.516;13.294;2023-06-10T09:06:47;25.70;88.90
47090;DHT22;32840;52.516;13.294;2023-06-10T09:09:34;25.70;88.90
47090;DHT22;32840;52.516;13.294;2023-06-10T09:12:20;25.70;88.50
47090;DHT22;32840;52.516;13.294;2023-06-10T09:15:06;25.90;87.90
47090;DHT22;32840;52.516;13.294;2023-06-10T09:17:51;25.80;87.80
47090;DHT22;32840;52.516;13.294;2023-06-10T09:20:38;25.60;87.50
47090;DHT22;32840;52.516;13.294;2023-06-10T09:23:23;25.40;87.90
47090;DHT22;32840;52.516;13.294;2023-06-10T09:26:09;25.20;89.00
47090;DHT22;32840;52.516;13.294;2023-06-10T09:29:07;25.20;89.50
47090;DHT22;32840;52.516;13.294;2023-06-10T09:31:56;24.90;89.60
47090;DHT22;32840;52.516;13.294;2023-06-10T09:34:41;24.70;90.20
47090;DHT22;32840;52.516;13.294;2023-06-10T09:37:25;24.60;90.70
47090;DHT22;32840;52.516;13.294;2023-06-10T09:40:11;24.50;90.80
47090;DHT22;32840;52.516;13.294;2023-06-10T09:42:58;24.60;90.90
47090;DHT22;32840;52.516;13.294;2023-06-10T09:45:43;24.60;91.00
47090;DHT22;32840;52.516;13.294;2023-06-10T09:48:28;24.50;90.80
47090;DHT22;32840;52.516;13.294;2023-06-10T09:51:14;24.60;90.80
47090;DHT22;32840;52.516;13.294;2023-06-10T09:54:04;24.70;90.70
47090;DHT22;32840;52.516;13.294;2023-06-10T09:56:51;24.60;90.70
47090;DHT22;32840;52.516;13.294;2023-06-10T09:59:37;24.60;90.60
47090;DHT22;32840;52.516;13.294;2023-06-10T10:02:22;24.50;90.90
47090;DHT22;32840;52.516;13.294;2023-06-10T10:05:07;24.30;91.00
47090;DHT22;32840;52.516;13.294;2023-06-10T10:07:52;24.30;91.50
47090;DHT22;32840;52.516;13.294;2023-06-10T10:10:37;24.30;91.30
47090;DHT22;32840;52.516;13.294;2023-06-10T10:13:23;24.20;91.30
47090;DHT22;32840;52.516;13.294;2023-06-10T10:16:19;24.20;91.10
47090;DHT22;32840;52.516;13.294;2023-06-10T10:19:07;24.00;91.00
47090;DHT22;32840;52.516;13.294;2023-06-10T10:21:56;24.00;91.10
47090;DHT22;32840;52.516;13.294;2023-06-10T10:24:49;24.00;91.10
47090;DHT22;32840;52.516;13.294;2023-06-10T10:27:51;24.00;91.40
47090;DHT22;32840;52.516;13.294;2023-06-10T10:30:47;24.20;91.70
47090;DHT22;32840;52.516;13.294;2023-06-10T10:33:51;24.20;92.30
47090;DHT22;32840;52.516;13.294;2023-06-10T10:36:39;24.20;92.20
47090;DHT22;32840;52.516;13.294;2023-06-10T10:39:24;24.10;92.00
47090;DHT22;32840;52.516;13.294;2023-06-10T10:42:11;24.10;93.80
47090;DHT22;32840;52.516;13.294;2023-06-10T10:44:57;24.00;91.70
47090;DHT22;32840;52.516;13.294;2023-06-10T10:47:45;23.90;89.50
47090;DHT22;32840;52.516;13.294;2023-06-10T10:50:30;23.90;88.40
47090;DHT22;32840;52.516;13.294;2023-06-10T10:53:20;23.90;87.60
47090;DHT22;32840;52.516;13.294;2023-06-10T10:56:06;23.90;85.60
47090;DHT22;32840;52.516;13.294;2023-06-10T10:59:04;23.90;85.20
47090;DHT22;32840;52.516;13.294;2023-06-10T11:01:49;23.90;84.70
47090;DHT22;32840;52.516;13.294;2023-06-10T11:04:34;23.80;84.40
47090;DHT22;32840;52.516;13.294;2023-06-10T11:07:24;23.90;85.30
47090;DHT22;32840;52.516;13.294;2023-06-10T11:10:13;23.90;85.20
47090;DHT22;32840;52.516;13.294;2023-06-10T11:12:58;24.10;86.10
47090;DHT22;32840;52.516;13.294;2023-06-10T11:15:47;24.30;84.90
47090;DHT22;32840;52.516;13.294;2023-06-10T11:18:41;24.50;85.10
47090;DHT22;32840;52.516;13.294;2023-06-10T11:21:26;24.70;84.00
47090;DHT22;32840;52.516;13.294;2023-06-10T11:24:14;24.80;84.00
47090;DHT22;32840;52.516;13.294;2023-06-10T11:27:15;24.90;84.70
47090;DHT22;32840;52.516;13.294;2023-06-10T11:32:50;24.90;84.50
47090;DHT22;32840;52.516;13.294;2023-06-10T11:35:36;25.00;85.20
47090;DHT22;32840;52.516;13.294;2023-06-10T11:38:21;25.10;84.50
47090;DHT22;32840;52.516;13.294;2023-06-10T11:41:07;25.20;82.00
47090;DHT22;32840;52.516;13.294;2023-06-10T11:43:53;25.30;82.30
47090;DHT22;32840;52.516;13.294;2023-06-10T11:46:39;25.30;81.20
47090;DHT22;32840;52.516;13.294;2023-06-10T11:49:25;25.40;81.20
47090;DHT22;32840;52.516;13.294;2023-06-10T11:52:09;25.50;77.70
47090;DHT22;32840;52.516;13.294;2023-06-10T11:54:55;25.50;79.50
47090;DHT22;32840;52.516;13.294;2023-06-10T11:57:40;25.30;78.70
47090;DHT22;32840;52.516;13.294;2023-06-10T12:00:25;25.10;80.40
47090;DHT22;32840;52.516;13.294;2023-06-10T12:03:10;24.80;80.40
47090;DHT22;32840;52.516;13.294;2023-06-10T12:06:06;24.70;81.10
47090;DHT22;32840;52.516;13.294;2023-06-10T12:08:50;24.70;83.00
47090;DHT22;32840;52.516;13.294;2023-06-10T12:11:35;24.70;85.10
47090;DHT22;32840;52.516;13.294;2023-06-10T12:14:58;24.60;87.40
47090;DHT22;32840;52.516;13.294;2023-06-10T12:17:43;24.60;89.20
47090;DHT22;32840;52.516;13.294;2023-06-10T12:20:30;24.60;90.30
47090;DHT22;32840;52.516;13.294;2023-06-10T12:23:18;24.70;90.10
47090;DHT22;32840;52.516;13.294;2023-06-10T12:26:03;24.80;89.50
47090;DHT22;32840;52.516;13.294;2023-06-10T12:28:50;25.00;89.80
47090;DHT22;32840;52.516;13.294;2023-06-10T12:31:58;25.10;87.50
47090;DHT22;32840;52.516;13.294;2023-06-10T12:34:43;25.30;85.90
47090;DHT22;32840;52.516;13.294;2023-06-10T12:37:28;25.30;85.90
47090;DHT22;32840;52.516;13.294;2023-06-10T12:40:13;25.40;83.20
47090;DHT22;32840;52.516;13.294;2023-06-10T12:42:59;25.50;80.90
47090;DHT22;32840;52.516;13.294;2023-06-10T12:45:44;25.50;79.20
47090;DHT22;32840;52.516;13.294;2023-06-10T12:48:29;25.60;79.90
47090;DHT22;32840;52.516;13.294;2023-06-10T12:51:14;25.60;78.90
47090;DHT22;32840;52.516;13.294;2023-06-10T12:53:59;25.60;78.00
47090;DHT22;32840;52.516;13.294;2023-06-10T12:56:44;25.70;76.60
47090;DHT22;32840;52.516;13.294;2023-06-10T12:59:29;25.80;75.60
47090;DHT22;32840;52.516;13.294;2023-06-10T13:02:13;25.90;75.90
47090;DHT22;32840;52.516;13.294;2023-06-10T13:04:58;26.00;75.90
47090;DHT22;32840;52.516;13.294;2023-06-10T13:07:44;26.10;75.90
47090;DHT22;32840;52.516;13.294;2023-06-10T13:10:29;26.20;76.50
47090;DHT22;32840;52.516;13.294;2023-06-10T13:13:14;26.20;76.60
47090;DHT22;32840;52.516;13.294;2023-06-10T13:15:59;26.30;77.40
47090;DHT22;32840;52.516;13.294;2023-06-10T13:18:46;26.30;77.50
47090;DHT22;32840;52.516;13.294;2023-06-10T13:21:32;26.40;78.10
47090;DHT22;32840;52.516;13.294;2023-06-10T13:24:17;26.40;77.60
47090;DHT22;32840;52.516;13.294;2023-06-10T13:27:03;26.50;78.50
47090;DHT22;32840;52.516;13.294;2023-06-10T13:29:47;26.60;78.40
47090;DHT22;32840;52.516;13.294;2023-06-10T13:32:33;26.60;77.10
47090;DHT22;32840;52.516;13.294;2023-06-10T13:35:18;26.60;76.90
47090;DHT22;32840;52.516;13.294;2023-06-10T13:38:03;26.50;77.30
47090;DHT22;32840;52.516;13.294;2023-06-10T13:40:47;26.50;77.70
47090;DHT22;32840;52.516;13.294;2023-06-10T13:43:32;26.50;77.50
47090;DHT22;32840;52.516;13.294;2023-06-10T13:46:17;26.60;77.00
47090;DHT22;32840;52.516;13.294;2023-06-10T13:49:02;26.60;76.30
47090;DHT22;32840;52.516;13.294;2023-06-10T13:51:47;26.60;75.80
47090;DHT22;32840;52.516;13.294;2023-06-10T13:54:33;26.60;75.90
47090;DHT22;32840;52.516;13.294;2023-06-10T13:57:18;26.60;75.10
47090;DHT22;32840;52.516;13.294;2023-06-10T14:00:03;26.70;75.40
47090;DHT22;32840;52.516;13.294;2023-06-10T14:02:48;26.80;73.90
47090;DHT22;32840;52.516;13.294;2023-06-10T14:05:33;26.90;73.20
47090;DHT22;32840;52.516;13.294;2023-06-10T14:08:19;26.90;73.60
47090;DHT22;32840;52.516;13.294;2023-06-10T14:11:04;26.90;73.00
47090;DHT22;32840;52.516;13.294;2023-06-10T14:13:49;27.00;72.10
47090;DHT22;32840;52.516;13.294;2023-06-10T14:16:34;27.00;71.70
47090;DHT22;32840;52.516;13.294;2023-06-10T14:19:19;27.00;71.50
47090;DHT22;32840;52.516;13.294;2023-06-10T14:22:04;27.00;72.50
47090;DHT22;32840;52.516;13.294;2023-06-10T14:24:48;27.00;73.20
47090;DHT22;32840;52.516;13.294;2023-06-10T14:27:33;27.10;74.10
47090;DHT22;32840;52.516;13.294;2023-06-10T14:30:19;26.90;73.90
47090;DHT22;32840;52.516;13.294;2023-06-10T14:33:04;26.80;74.00
47090;DHT22;32840;52.516;13.294;2023-06-10T14:35:49;26.80;70.50
47090;DHT22;32840;52.516;13.294;2023-06-10T14:38:34;26.80;68.10
47090;DHT22;32840;52.516;13.294;2023-06-10T14:41:19;27.00;64.90
47090;DHT22;32840;52.516;13.294;2023-06-10T14:44:04;27.00;63.30
47090;DHT22;32840;52.516;13.294;2023-06-10T14:46:49;27.00;62.30
47090;DHT22;32840;52.516;13.294;2023-06-10T14:49:34;27.00;62.50
47090;DHT22;32840;52.516;13.294;2023-06-10T14:52:19;27.00;61.70
47090;DHT22;32840;52.516;13.294;2023-06-10T14:55:04;27.10;63.00
47090;DHT22;32840;52.516;13.294;2023-06-10T14:57:49;27.10;62.80
47090;DHT22;32840;52.516;13.294;2023-06-10T15:00:34;27.10;62.50
47090;DHT22;32840;52.516;13.294;2023-06-10T15:03:19;27.10;63.20
47090;DHT22;32840;52.516;13.294;2023-06-10T15:06:04;27.10;62.40
47090;DHT22;32840;52.516;13.294;2023-06-10T15:08:49;27.10;61.30
47090;DHT22;32840;52.516;13.294;2023-06-10T15:11:34;27.10;61.00
47090;DHT22;32840;52.516;13.294;2023-06-10T15:14:18;27.10;60.20
47090;DHT22;32840;52.516;13.294;2023-06-10T15:17:04;27.10;59.30
47090;DHT22;32840;52.516;13.294;2023-06-10T15:19:49;27.10;59.50
47090;DHT22;32840;52.516;13.294;2023-06-10T15:22:33;27.10;59.10
47090;DHT22;32840;52.516;13.294;2023-06-10T15:25:18;27.10;58.90
47090;DHT22;32840;52.516;13.294;2023-06-10T15:28:03;27.10;59.10
47090;DHT22;32840;52.516;13.294;2023-06-10T15:30:49;27.10;58.70
47090;DHT22;32840;52.516;13.294;2023-06-10T15:33:34;27.10;58.50
47090;DHT22;32840;52.516;13.294;2023-06-10T15:36:19;27.20;58.00
47090;DHT22;32840;52.516;13.294;2023-06-10T15:39:05;27.30;58.00
47090;DHT22;32840;52.516;13.294;2023-06-10T15:41:51;27.30;57.70
47090;DHT22;32840;52.516;13.294;2023-06-10T15:44:36;27.30;57.20
47090;DHT22;32840;52.516;13.294;2023-06-10T15:47:20;27.30;56.70
47090;DHT22;32840;52.516;13.294;2023-06-10T15:50:06;27.30;56.70
47090;DHT22;32840;52.516;13.294;2023-06-10T15:52:51;27.40;56.40
47090;DHT22;32840;52.516;13.294;2023-06-10T15:55:36;27.50;56.20
47090;DHT22;32840;52.516;13.294;2023-06-10T15:58:21;27.50;55.30
47090;DHT22;32840;52.516;13.294;2023-06-10T16:01:06;27.50;55.20
47090;DHT22;32840;52.516;13.294;2023-06-10T16:03:52;27.60;55.80
47090;DHT22;32840;52.516;13.294;2023-06-10T16:06:37;27.50;55.60
47090;DHT22;32840;52.516;13.294;2023-06-10T16:09:22;27.50;55.80
47090;DHT22;32840;52.516;13.294;2023-06-10T16:12:07;27.40;54.60
47090;DHT22;32840;52.516;13.294;2023-06-10T16:14:52;27.40;55.60
47090;DHT22;32840;52.516;13.294;2023-06-10T16:17:37;27.20;55.90
47090;DHT22;32840;52.516;13.294;2023-06-10T16:20:22;27.20;56.50
47090;DHT22;32840;52.516;13.294;2023-06-10T16:23:07;27.10;56.50
47090;DHT22;32840;52.516;13.294;2023-06-10T16:25:52;27.00;56.40
47090;DHT22;32840;52.516;13.294;2023-06-10T16:28:37;27.00;56.60
47090;DHT22;32840;52.516;13.294;2023-06-10T16:31:21;26.90;56.80
47090;DHT22;32840;52.516;13.294;2023-06-10T16:34:06;26.80;57.00
47090;DHT22;32840;52.516;13.294;2023-06-10T16:36:51;26.70;57.00
47090;DHT22;32840;52.516;13.294;2023-06-10T16:39:36;26.70;56.80
47090;DHT22;32840;52.516;13.294;2023-06-10T16:42:21;26.60;57.10
47090;DHT22;32840;52.516;13.294;2023-06-10T16:45:07;26.60;56.80
47090;DHT22;32840;52.516;13.294;2023-06-10T16:47:52;26.60;56.90
47090;DHT22;32840;52.516;13.294;2023-06-10T16:50:36;26.60;56.80
47090;DHT22;32840;52.516;13.294;2023-06-10T16:53:21;26.60;56.40
47090;DHT22;32840;52.516;13.294;2023-06-10T16:56:06;26.60;54.60
47090;DHT22;32840;52.516;13.294;2023-06-10T16:58:51;26.60;53.90
47090;DHT22;32840;52.516;13.294;2023-06-10T17:01:36;26.60;53.50
47090;DHT22;32840;52.516;13.294;2023-06-10T17:04:21;26.60;53.60
47090;DHT22;32840;52.516;13.294;2023-06-10T17:07:06;26.50;52.50
47090;DHT22;32840;52.516;13.294;2023-06-10T17:09:51;26.60;51.00
47090;DHT22;32840;52.516;13.294;2023-06-10T17:12:36;26.60;49.70
47090;DHT22;32840;52.516;13.294;2023-06-10T17:15:21;26.60;49.40